sensor_id;sensor_type;location;lat;lon;timestamp;P1;durP1;ratioP1;P2;durP2;ratioP2
66607;SDS011;53462;39.616;8.824;2022-08-07T00:01:11;8.02;;;3.30;;
66607;SDS011;53462;39.616;8.824;2022-08-07T00:03:37;8.20;;;3.50;;
66607;SDS011;53462;39.616;8.824;2022-08-07T00:06:04;8.30;;;3.38;;
66607;SDS011;53462;39.616;8.824;2022-08-07T00:08:30;5.15;;;3.20;;
66607;SDS011;53462;39.616;8.824;2022-08-07T00:10:56;5.97;;;3.22;;
66607;SDS011;53462;39.616;8.824;2022-08-07T00:13:23;5.78;;;3.22;;
66607;SDS011;53462;39.616;8.824;2022-08-07T00:15:49;6.95;;;3.75;;
66607;SDS011;53462;39.616;8.824;2022-08-07T00:18:16;7.88;;;3.30;;
66607;SDS011;53462;39.616;8.824;2022-08-07T00:20:44;4.32;;;3.28;;
66607;SDS011;53462;39.616;8.824;2022-08-07T00:23:11;4.57;;;3.22;;
66607;SDS011;53462;39.616;8.824;2022-08-07T00:25:37;9.02;;;3.55;;
66607;SDS011;53462;39.616;8.824;2022-08-07T00:28:03;5.15;;;3.03;;
66607;SDS011;53462;39.616;8.824;2022-08-07T00:30:28;5.53;;;3.30;;
66607;SDS011;53462;39.616;8.824;2022-08-07T00:32:55;7.00;;;3.22;;
66607;SDS011;53462;39.616;8.824;2022-08-07T00:35:22;8.88;;;3.42;;
66607;SDS011;53462;39.616;8.824;2022-08-07T00:37:49;5.75;;;3.47;;
66607;SDS011;53462;39.616;8.824;2022-08-07T00:40:15;5.57;;;3.63;;
66607;SDS011;53462;39.616;8.824;2022-08-07T00:42:41;7.88;;;3.20;;
66607;SDS011;53462;39.616;8.824;2022-08-07T00:45:07;7.57;;;3.33;;
66607;SDS011;53462;39.616;8.824;2022-08-07T00:47:34;6.18;;;3.70;;
66607;SDS011;53462;39.616;8.824;2022-08-07T00:50:02;5.10;;;3.25;;
66607;SDS011;53462;39.616;8.824;2022-08-07T00:52:28;5.97;;;3.47;;
66607;SDS011;53462;39.616;8.824;2022-08-07T00:54:54;6.07;;;3.10;;
66607;SDS011;53462;39.616;8.824;2022-08-07T00:57:23;5.28;;;3.60;;
66607;SDS011;53462;39.616;8.824;2022-08-07T00:59:50;6.45;;;3.17;;
66607;SDS011;53462;39.616;8.824;2022-08-07T01:02:16;5.57;;;3.08;;
66607;SDS011;53462;39.616;8.824;2022-08-07T01:04:43;4.25;;;3.40;;
66607;SDS011;53462;39.616;8.824;2022-08-07T01:07:10;5.90;;;3.15;;
66607;SDS011;53462;39.616;8.824;2022-08-07T01:09:37;8.45;;;3.58;;
66607;SDS011;53462;39.616;8.824;2022-08-07T01:12:03;5.00;;;3.10;;
66607;SDS011;53462;39.616;8.824;2022-08-07T01:14:29;5.75;;;3.35;;
66607;SDS011;53462;39.616;8.824;2022-08-07T01:16:56;7.22;;;3.35;;
66607;SDS011;53462;39.616;8.824;2022-08-07T01:19:27;6.03;;;3.80;;
66607;SDS011;53462;39.616;8.824;2022-08-07T01:21:54;5.15;;;2.97;;
66607;SDS011;53462;39.616;8.824;2022-08-07T01:24:28;7.30;;;3.47;;
66607;SDS011;53462;39.616;8.824;2022-08-07T01:26:54;5.60;;;3.50;;
66607;SDS011;53462;39.616;8.824;2022-08-07T01:29:22;8.20;;;3.58;;
66607;SDS011;53462;39.616;8.824;2022-08-07T01:31:51;5.93;;;3.38;;
66607;SDS011;53462;39.616;8.824;2022-08-07T01:34:18;8.35;;;3.63;;
66607;SDS011;53462;39.616;8.824;2022-08-07T01:36:45;4.93;;;3.38;;
66607;SDS011;53462;39.616;8.824;2022-08-07T01:39:16;10.07;;;4.18;;
66607;SDS011;53462;39.616;8.824;2022-08-07T01:41:53;8.80;;;3.70;;
66607;SDS011;53462;39.616;8.824;2022-08-07T01:44:22;5.38;;;3.35;;
66607;SDS011;53462;39.616;8.824;2022-08-07T01:46:48;7.82;;;3.85;;
66607;SDS011;53462;39.616;8.824;2022-08-07T01:49:16;5.32;;;3.50;;
66607;SDS011;53462;39.616;8.824;2022-08-07T01:51:45;6.15;;;3.42;;
66607;SDS011;53462;39.616;8.824;2022-08-07T01:54:13;7.25;;;3.40;;
66607;SDS011;53462;39.616;8.824;2022-08-07T01:56:53;9.20;;;3.85;;
66607;SDS011;53462;39.616;8.824;2022-08-07T02:02:26;7.60;;;3.35;;
66607;SDS011;53462;39.616;8.824;2022-08-07T02:05:06;4.70;;;3.33;;
66607;SDS011;53462;39.616;8.824;2022-08-07T02:07:38;6.43;;;4.13;;
66607;SDS011;53462;39.616;8.824;2022-08-07T02:10:18;7.22;;;3.30;;
66607;SDS011;53462;39.616;8.824;2022-08-07T02:12:47;7.15;;;3.63;;
66607;SDS011;53462;39.616;8.824;2022-08-07T02:15:21;8.40;;;3.92;;
66607;SDS011;53462;39.616;8.824;2022-08-07T02:17:50;7.47;;;3.67;;
66607;SDS011;53462;39.616;8.824;2022-08-07T02:20:17;6.47;;;3.80;;
66607;SDS011;53462;39.616;8.824;2022-08-07T02:22:44;9.73;;;3.67;;
66607;SDS011;53462;39.616;8.824;2022-08-07T02:25:12;8.45;;;3.80;;
66607;SDS011;53462;39.616;8.824;2022-08-07T02:27:41;6.75;;;3.70;;
66607;SDS011;53462;39.616;8.824;2022-08-07T02:30:11;7.18;;;3.63;;
66607;SDS011;53462;39.616;8.824;2022-08-07T02:32:38;6.40;;;3.70;;
66607;SDS011;53462;39.616;8.824;2022-08-07T02:35:06;6.57;;;3.90;;
66607;SDS011;53462;39.616;8.824;2022-08-07T02:37:37;8.65;;;3.75;;
66607;SDS011;53462;39.616;8.824;2022-08-07T02:40:07;4.63;;;3.42;;
66607;SDS011;53462;39.616;8.824;2022-08-07T02:42:34;7.85;;;3.58;;
66607;SDS011;53462;39.616;8.824;2022-08-07T02:45:00;8.93;;;3.85;;
66607;SDS011;53462;39.616;8.824;2022-08-07T02:47:29;7.60;;;3.92;;
66607;SDS011;53462;39.616;8.824;2022-08-07T02:50:06;8.68;;;3.90;;
66607;SDS011;53462;39.616;8.824;2022-08-07T02:52:38;10.65;;;3.83;;
66607;SDS011;53462;39.616;8.824;2022-08-07T02:55:20;8.07;;;4.03;;
66607;SDS011;53462;39.616;8.824;2022-08-07T02:57:49;10.20;;;4.40;;
66607;SDS011;53462;39.616;8.824;2022-08-07T03:00:16;7.00;;;3.60;;
66607;SDS011;53462;39.616;8.824;2022-08-07T03:02:44;8.95;;;4.00;;
66607;SDS011;53462;39.616;8.824;2022-08-07T03:05:14;8.95;;;4.00;;
66607;SDS011;53462;39.616;8.824;2022-08-07T03:07:42;7.38;;;3.90;;
66607;SDS011;53462;39.616;8.824;2022-08-07T03:10:10;6.00;;;4.07;;
66607;SDS011;53462;39.616;8.824;2022-08-07T03:12:36;7.05;;;3.75;;
66607;SDS011;53462;39.616;8.824;2022-08-07T03:15:08;11.65;;;4.47;;
66607;SDS011;53462;39.616;8.824;2022-08-07T03:17:36;8.88;;;4.20;;
66607;SDS011;53462;39.616;8.824;2022-08-07T03:20:05;8.20;;;3.80;;
66607;SDS011;53462;39.616;8.824;2022-08-07T03:22:33;6.22;;;4.00;;
66607;SDS011;53462;39.616;8.824;2022-08-07T03:25:02;9.27;;;4.55;;
66607;SDS011;53462;39.616;8.824;2022-08-07T03:27:35;11.80;;;4.15;;
66607;SDS011;53462;39.616;8.824;2022-08-07T03:30:03;9.23;;;3.97;;
66607;SDS011;53462;39.616;8.824;2022-08-07T03:32:32;7.32;;;3.95;;
66607;SDS011;53462;39.616;8.824;2022-08-07T03:35:02;7.25;;;4.20;;
66607;SDS011;53462;39.616;8.824;2022-08-07T03:37:33;8.20;;;4.25;;
66607;SDS011;53462;39.616;8.824;2022-08-07T03:40:01;7.78;;;3.85;;
66607;SDS011;53462;39.616;8.824;2022-08-07T03:42:28;6.95;;;3.88;;
66607;SDS011;53462;39.616;8.824;2022-08-07T03:44:54;6.95;;;4.32;;
66607;SDS011;53462;39.616;8.824;2022-08-07T03:47:21;9.57;;;4.63;;
66607;SDS011;53462;39.616;8.824;2022-08-07T03:49:47;9.82;;;3.90;;
66607;SDS011;53462;39.616;8.824;2022-08-07T03:52:14;5.20;;;3.92;;
66607;SDS011;53462;39.616;8.824;2022-08-07T03:54:41;8.43;;;4.28;;
66607;SDS011;53462;39.616;8.824;2022-08-07T03:57:09;8.85;;;4.53;;
66607;SDS011;53462;39.616;8.824;2022-08-07T03:59:37;9.07;;;4.53;;
66607;SDS011;53462;39.616;8.824;2022-08-07T04:02:05;8.95;;;4.30;;
66607;SDS011;53462;39.616;8.824;2022-08-07T04:04:32;8.88;;;4.40;;
66607;SDS011;53462;39.616;8.824;2022-08-07T04:07:03;12.35;;;4.55;;
66607;SDS011;53462;39.616;8.824;2022-08-07T04:09:31;10.75;;;4.40;;
66607;SDS011;53462;39.616;8.824;2022-08-07T04:12:00;10.88;;;4.65;;
66607;SDS011;53462;39.616;8.824;2022-08-07T04:14:27;6.60;;;4.22;;
66607;SDS011;53462;39.616;8.824;2022-08-07T04:16:54;9.68;;;4.43;;
66607;SDS011;53462;39.616;8.824;2022-08-07T04:19:20;7.28;;;4.25;;
66607;SDS011;53462;39.616;8.824;2022-08-07T04:21:49;9.30;;;4.38;;
66607;SDS011;53462;39.616;8.824;2022-08-07T04:24:16;8.30;;;4.38;;
66607;SDS011;53462;39.616;8.824;2022-08-07T04:26:42;8.00;;;4.10;;
66607;SDS011;53462;39.616;8.824;2022-08-07T04:29:09;8.25;;;4.47;;
66607;SDS011;53462;39.616;8.824;2022-08-07T04:31:38;8.20;;;4.07;;
66607;SDS011;53462;39.616;8.824;2022-08-07T04:34:06;8.40;;;4.30;;
66607;SDS011;53462;39.616;8.824;2022-08-07T04:36:33;7.05;;;4.28;;
66607;SDS011;53462;39.616;8.824;2022-08-07T04:39:03;7.88;;;4.38;;
66607;SDS011;53462;39.616;8.824;2022-08-07T04:41:30;8.35;;;4.43;;
66607;SDS011;53462;39.616;8.824;2022-08-07T04:43:56;11.02;;;4.35;;
66607;SDS011;53462;39.616;8.824;2022-08-07T04:49:18;10.20;;;4.50;;
66607;SDS011;53462;39.616;8.824;2022-08-07T04:52:24;6.75;;;4.30;;
66607;SDS011;53462;39.616;8.824;2022-08-07T04:55:10;7.50;;;4.60;;
66607;SDS011;53462;39.616;8.824;2022-08-07T05:00:46;7.90;;;4.53;;
66607;SDS011;53462;39.616;8.824;2022-08-07T05:03:35;10.57;;;4.50;;
66607;SDS011;53462;39.616;8.824;2022-08-07T05:06:10;8.23;;;4.60;;
66607;SDS011;53462;39.616;8.824;2022-08-07T05:08:57;9.18;;;4.65;;
66607;SDS011;53462;39.616;8.824;2022-08-07T05:11:39;11.57;;;4.78;;
66607;SDS011;53462;39.616;8.824;2022-08-07T05:14:13;12.55;;;4.50;;
66607;SDS011;53462;39.616;8.824;2022-08-07T05:16:56;14.90;;;4.78;;
66607;SDS011;53462;39.616;8.824;2022-08-07T05:19:27;12.60;;;4.80;;
66607;SDS011;53462;39.616;8.824;2022-08-07T05:22:00;14.35;;;4.72;;
66607;SDS011;53462;39.616;8.824;2022-08-07T05:24:31;13.35;;;4.47;;
66607;SDS011;53462;39.616;8.824;2022-08-07T05:27:00;8.00;;;4.20;;
66607;SDS011;53462;39.616;8.824;2022-08-07T05:29:27;8.50;;;4.60;;
66607;SDS011;53462;39.616;8.824;2022-08-07T05:31:54;9.95;;;4.53;;
66607;SDS011;53462;39.616;8.824;2022-08-07T05:34:26;9.82;;;4.53;;
66607;SDS011;53462;39.616;8.824;2022-08-07T05:36:53;8.73;;;4.30;;
66607;SDS011;53462;39.616;8.824;2022-08-07T05:39:39;8.45;;;4.50;;
66607;SDS011;53462;39.616;8.824;2022-08-07T05:42:05;7.63;;;4.25;;
66607;SDS011;53462;39.616;8.824;2022-08-07T05:44:35;10.25;;;4.18;;
66607;SDS011;53462;39.616;8.824;2022-08-07T05:47:04;11.20;;;4.72;;
66607;SDS011;53462;39.616;8.824;2022-08-07T05:49:33;9.98;;;4.60;;
66607;SDS011;53462;39.616;8.824;2022-08-07T05:52:02;14.93;;;4.18;;
66607;SDS011;53462;39.616;8.824;2022-08-07T05:54:30;8.43;;;4.00;;
66607;SDS011;53462;39.616;8.824;2022-08-07T05:56:56;16.55;;;4.32;;
66607;SDS011;53462;39.616;8.824;2022-08-07T05:59:24;9.35;;;4.57;;
66607;SDS011;53462;39.616;8.824;2022-08-07T06:01:57;8.02;;;4.07;;
66607;SDS011;53462;39.616;8.824;2022-08-07T06:04:24;13.68;;;4.75;;
66607;SDS011;53462;39.616;8.824;2022-08-07T06:06:52;6.72;;;3.30;;
66607;SDS011;53462;39.616;8.824;2022-08-07T06:09:18;6.85;;;4.00;;
66607;SDS011;53462;39.616;8.824;2022-08-07T06:11:46;9.18;;;4.07;;
66607;SDS011;53462;39.616;8.824;2022-08-07T06:14:15;6.63;;;3.85;;
66607;SDS011;53462;39.616;8.824;2022-08-07T06:16:45;15.80;;;4.13;;
66607;SDS011;53462;39.616;8.824;2022-08-07T06:19:13;9.75;;;4.28;;
66607;SDS011;53462;39.616;8.824;2022-08-07T06:21:41;13.27;;;4.43;;
66607;SDS011;53462;39.616;8.824;2022-08-07T06:24:09;8.82;;;3.80;;
66607;SDS011;53462;39.616;8.824;2022-08-07T06:26:37;10.02;;;3.90;;
66607;SDS011;53462;39.616;8.824;2022-08-07T06:29:07;9.55;;;3.65;;
66607;SDS011;53462;39.616;8.824;2022-08-07T06:31:34;7.95;;;3.63;;
66607;SDS011;53462;39.616;8.824;2022-08-07T06:34:00;16.95;;;3.70;;
66607;SDS011;53462;39.616;8.824;2022-08-07T06:36:26;8.73;;;3.50;;
66607;SDS011;53462;39.616;8.824;2022-08-07T06:38:55;8.02;;;3.72;;
66607;SDS011;53462;39.616;8.824;2022-08-07T06:41:45;10.32;;;3.70;;
66607;SDS011;53462;39.616;8.824;2022-08-07T06:44:12;7.85;;;3.80;;
66607;SDS011;53462;39.616;8.824;2022-08-07T06:46:40;9.35;;;3.75;;
66607;SDS011;53462;39.616;8.824;2022-08-07T06:49:06;8.35;;;4.43;;
66607;SDS011;53462;39.616;8.824;2022-08-07T06:51:36;8.85;;;3.47;;
66607;SDS011;53462;39.616;8.824;2022-08-07T06:54:07;10.25;;;3.58;;
66607;SDS011;53462;39.616;8.824;2022-08-07T06:56:36;7.82;;;3.40;;
66607;SDS011;53462;39.616;8.824;2022-08-07T06:59:19;8.18;;;3.55;;
66607;SDS011;53462;39.616;8.824;2022-08-07T07:01:56;7.35;;;3.53;;
66607;SDS011;53462;39.616;8.824;2022-08-07T07:04:24;5.90;;;3.78;;
66607;SDS011;53462;39.616;8.824;2022-08-07T07:06:51;6.47;;;3.67;;
66607;SDS011;53462;39.616;8.824;2022-08-07T07:14:20;9.65;;;3.30;;
66607;SDS011;53462;39.616;8.824;2022-08-07T07:16:50;6.57;;;3.50;;
66607;SDS011;53462;39.616;8.824;2022-08-07T07:19:24;6.05;;;3.47;;
66607;SDS011;53462;39.616;8.824;2022-08-07T07:21:56;7.80;;;3.47;;
66607;SDS011;53462;39.616;8.824;2022-08-07T07:24:23;8.65;;;3.42;;
66607;SDS011;53462;39.616;8.824;2022-08-07T07:26:50;8.20;;;3.53;;
66607;SDS011;53462;39.616;8.824;2022-08-07T07:29:20;6.72;;;3.70;;
66607;SDS011;53462;39.616;8.824;2022-08-07T07:31:50;8.55;;;3.65;;
66607;SDS011;53462;39.616;8.824;2022-08-07T07:34:23;9.85;;;3.65;;
66607;SDS011;53462;39.616;8.824;2022-08-07T07:36:53;7.05;;;3.35;;
66607;SDS011;53462;39.616;8.824;2022-08-07T07:39:21;6.63;;;3.17;;
66607;SDS011;53462;39.616;8.824;2022-08-07T07:41:49;8.68;;;3.50;;
66607;SDS011;53462;39.616;8.824;2022-08-07T07:44:17;6.93;;;3.58;;
66607;SDS011;53462;39.616;8.824;2022-08-07T07:46:44;11.65;;;3.35;;
66607;SDS011;53462;39.616;8.824;2022-08-07T07:49:13;8.82;;;3.20;;
66607;SDS011;53462;39.616;8.824;2022-08-07T07:51:43;6.25;;;3.10;;
66607;SDS011;53462;39.616;8.824;2022-08-07T07:54:12;6.45;;;3.45;;
66607;SDS011;53462;39.616;8.824;2022-08-07T07:56:39;6.13;;;3.20;;
66607;SDS011;53462;39.616;8.824;2022-08-07T07:59:07;7.03;;;3.20;;
66607;SDS011;53462;39.616;8.824;2022-08-07T08:01:36;8.35;;;3.15;;
66607;SDS011;53462;39.616;8.824;2022-08-07T08:04:06;7.85;;;3.17;;
66607;SDS011;53462;39.616;8.824;2022-08-07T08:06:33;7.57;;;3.25;;
66607;SDS011;53462;39.616;8.824;2022-08-07T08:09:01;7.18;;;3.22;;
66607;SDS011;53462;39.616;8.824;2022-08-07T08:11:28;9.18;;;3.65;;
66607;SDS011;53462;39.616;8.824;2022-08-07T08:13:55;12.35;;;3.50;;
66607;SDS011;53462;39.616;8.824;2022-08-07T08:16:34;10.93;;;3.55;;
66607;SDS011;53462;39.616;8.824;2022-08-07T08:19:04;6.53;;;3.40;;
66607;SDS011;53462;39.616;8.824;2022-08-07T08:21:32;7.30;;;3.22;;
66607;SDS011;53462;39.616;8.824;2022-08-07T08:24:20;7.35;;;3.33;;
66607;SDS011;53462;39.616;8.824;2022-08-07T08:27:06;10.52;;;3.40;;
66607;SDS011;53462;39.616;8.824;2022-08-07T08:29:39;9.48;;;3.25;;
66607;SDS011;53462;39.616;8.824;2022-08-07T08:32:09;7.47;;;3.20;;
66607;SDS011;53462;39.616;8.824;2022-08-07T08:34:39;9.02;;;3.42;;
66607;SDS011;53462;39.616;8.824;2022-08-07T08:37:06;12.25;;;3.63;;
66607;SDS011;53462;39.616;8.824;2022-08-07T08:39:34;25.48;;;4.88;;
66607;SDS011;53462;39.616;8.824;2022-08-07T08:42:03;16.42;;;4.25;;
66607;SDS011;53462;39.616;8.824;2022-08-07T08:44:38;8.35;;;3.28;;
66607;SDS011;53462;39.616;8.824;2022-08-07T08:47:07;9.18;;;3.20;;
66607;SDS011;53462;39.616;8.824;2022-08-07T08:50:13;10.68;;;3.55;;
66607;SDS011;53462;39.616;8.824;2022-08-07T08:55:55;6.95;;;3.10;;
66607;SDS011;53462;39.616;8.824;2022-08-07T09:03:58;5.10;;;3.35;;
66607;SDS011;53462;39.616;8.824;2022-08-07T09:12:10;7.35;;;3.20;;
66607;SDS011;53462;39.616;8.824;2022-08-07T09:25:25;5.72;;;3.05;;
66607;SDS011;53462;39.616;8.824;2022-08-07T09:28:05;5.18;;;2.83;;
66607;SDS011;53462;39.616;8.824;2022-08-07T09:30:55;6.18;;;2.83;;
66607;SDS011;53462;39.616;8.824;2022-08-07T09:34:10;7.85;;;3.20;;
66607;SDS011;53462;39.616;8.824;2022-08-07T09:38:53;4.45;;;2.85;;
66607;SDS011;53462;39.616;8.824;2022-08-07T09:41:42;4.80;;;3.10;;
66607;SDS011;53462;39.616;8.824;2022-08-07T09:44:20;5.03;;;2.60;;
66607;SDS011;53462;39.616;8.824;2022-08-07T09:52:22;5.80;;;2.90;;
66607;SDS011;53462;39.616;8.824;2022-08-07T09:54:56;5.65;;;2.90;;
66607;SDS011;53462;39.616;8.824;2022-08-07T10:00:42;4.72;;;2.90;;
66607;SDS011;53462;39.616;8.824;2022-08-07T10:06:18;6.53;;;2.90;;
66607;SDS011;53462;39.616;8.824;2022-08-07T10:11:48;6.65;;;2.80;;
66607;SDS011;53462;39.616;8.824;2022-08-07T10:31:09;4.88;;;2.92;;
66607;SDS011;53462;39.616;8.824;2022-08-07T10:33:58;4.20;;;2.80;;
66607;SDS011;53462;39.616;8.824;2022-08-07T10:36:46;9.30;;;2.80;;
66607;SDS011;53462;39.616;8.824;2022-08-07T10:44:50;7.10;;;3.92;;
66607;SDS011;53462;39.616;8.824;2022-08-07T10:55:43;5.40;;;2.97;;
66607;SDS011;53462;39.616;8.824;2022-08-07T11:09:56;4.18;;;2.70;;
66607;SDS011;53462;39.616;8.824;2022-08-07T11:12:32;7.75;;;2.90;;
66607;SDS011;53462;39.616;8.824;2022-08-07T11:15:04;3.28;;;2.35;;
66607;SDS011;53462;39.616;8.824;2022-08-07T11:17:38;7.03;;;2.30;;
66607;SDS011;53462;39.616;8.824;2022-08-07T11:20:16;4.78;;;2.50;;
66607;SDS011;53462;39.616;8.824;2022-08-07T11:25:42;5.50;;;2.63;;
66607;SDS011;53462;39.616;8.824;2022-08-07T11:28:16;4.00;;;2.45;;
66607;SDS011;53462;39.616;8.824;2022-08-07T11:30:50;6.13;;;2.92;;
66607;SDS011;53462;39.616;8.824;2022-08-07T11:33:26;4.53;;;2.20;;
66607;SDS011;53462;39.616;8.824;2022-08-07T11:38:39;5.88;;;2.25;;
66607;SDS011;53462;39.616;8.824;2022-08-07T11:41:18;5.35;;;2.30;;
66607;SDS011;53462;39.616;8.824;2022-08-07T11:44:08;3.10;;;2.20;;
66607;SDS011;53462;39.616;8.824;2022-08-07T11:46:54;4.05;;;2.45;;
66607;SDS011;53462;39.616;8.824;2022-08-07T11:55:16;6.88;;;2.38;;
66607;SDS011;53462;39.616;8.824;2022-08-07T11:57:44;3.65;;;2.25;;
66607;SDS011;53462;39.616;8.824;2022-08-07T12:06:31;4.72;;;2.50;;
66607;SDS011;53462;39.616;8.824;2022-08-07T12:09:12;4.82;;;2.30;;
66607;SDS011;53462;39.616;8.824;2022-08-07T12:12:03;6.43;;;2.50;;
66607;SDS011;53462;39.616;8.824;2022-08-07T12:14:50;5.78;;;2.30;;
66607;SDS011;53462;39.616;8.824;2022-08-07T12:17:23;3.47;;;2.28;;
66607;SDS011;53462;39.616;8.824;2022-08-07T12:19:56;5.72;;;2.28;;
66607;SDS011;53462;39.616;8.824;2022-08-07T12:22:31;5.35;;;2.38;;
66607;SDS011;53462;39.616;8.824;2022-08-07T12:28:24;4.43;;;2.10;;
66607;SDS011;53462;39.616;8.824;2022-08-07T12:30:58;5.15;;;2.60;;
66607;SDS011;53462;39.616;8.824;2022-08-07T12:33:30;5.43;;;2.38;;
66607;SDS011;53462;39.616;8.824;2022-08-07T12:35:58;3.83;;;2.17;;
66607;SDS011;53462;39.616;8.824;2022-08-07T12:38:28;4.30;;;2.40;;
66607;SDS011;53462;39.616;8.824;2022-08-07T12:40:56;6.03;;;2.30;;
66607;SDS011;53462;39.616;8.824;2022-08-07T12:43:27;4.50;;;2.20;;
66607;SDS011;53462;39.616;8.824;2022-08-07T12:51:40;5.30;;;2.22;;
66607;SDS011;53462;39.616;8.824;2022-08-07T12:54:20;3.90;;;2.30;;
66607;SDS011;53462;39.616;8.824;2022-08-07T12:56:55;5.63;;;2.33;;
66607;SDS011;53462;39.616;8.824;2022-08-07T12:59:26;3.72;;;2.20;;
66607;SDS011;53462;39.616;8.824;2022-08-07T13:18:36;7.10;;;2.33;;
66607;SDS011;53462;39.616;8.824;2022-08-07T13:21:23;4.05;;;2.30;;
66607;SDS011;53462;39.616;8.824;2022-08-07T13:26:54;3.92;;;2.25;;
66607;SDS011;53462;39.616;8.824;2022-08-07T13:32:29;4.07;;;2.10;;
66607;SDS011;53462;39.616;8.824;2022-08-07T13:35:05;5.45;;;2.05;;
66607;SDS011;53462;39.616;8.824;2022-08-07T13:40:36;4.65;;;2.35;;
66607;SDS011;53462;39.616;8.824;2022-08-07T13:43:13;4.60;;;2.17;;
66607;SDS011;53462;39.616;8.824;2022-08-07T13:45:43;3.17;;;2.17;;
66607;SDS011;53462;39.616;8.824;2022-08-07T13:48:11;5.53;;;2.33;;
66607;SDS011;53462;39.616;8.824;2022-08-07T13:50:40;5.70;;;2.30;;
66607;SDS011;53462;39.616;8.824;2022-08-07T13:53:08;6.63;;;1.98;;
66607;SDS011;53462;39.616;8.824;2022-08-07T13:55:35;5.25;;;2.50;;
66607;SDS011;53462;39.616;8.824;2022-08-07T13:58:06;3.88;;;2.03;;
66607;SDS011;53462;39.616;8.824;2022-08-07T14:00:53;6.20;;;2.33;;
66607;SDS011;53462;39.616;8.824;2022-08-07T14:03:21;5.65;;;2.10;;
66607;SDS011;53462;39.616;8.824;2022-08-07T14:05:50;6.45;;;2.83;;
66607;SDS011;53462;39.616;8.824;2022-08-07T14:08:21;3.97;;;2.30;;
66607;SDS011;53462;39.616;8.824;2022-08-07T14:10:48;6.13;;;2.30;;
66607;SDS011;53462;39.616;8.824;2022-08-07T14:13:17;4.57;;;2.05;;
66607;SDS011;53462;39.616;8.824;2022-08-07T14:15:52;8.23;;;2.45;;
66607;SDS011;53462;39.616;8.824;2022-08-07T14:21:31;5.03;;;2.22;;
66607;SDS011;53462;39.616;8.824;2022-08-07T14:24:04;4.35;;;2.10;;
66607;SDS011;53462;39.616;8.824;2022-08-07T14:26:56;6.35;;;2.17;;
66607;SDS011;53462;39.616;8.824;2022-08-07T14:29:35;5.35;;;2.35;;
66607;SDS011;53462;39.616;8.824;2022-08-07T14:32:05;8.73;;;2.20;;
66607;SDS011;53462;39.616;8.824;2022-08-07T14:34:36;4.93;;;2.15;;
66607;SDS011;53462;39.616;8.824;2022-08-07T14:37:06;6.72;;;1.85;;
66607;SDS011;53462;39.616;8.824;2022-08-07T14:39:36;6.28;;;2.20;;
66607;SDS011;53462;39.616;8.824;2022-08-07T14:42:06;7.65;;;2.50;;
66607;SDS011;53462;39.616;8.824;2022-08-07T14:44:44;5.55;;;2.15;;
66607;SDS011;53462;39.616;8.824;2022-08-07T14:47:17;4.60;;;2.28;;
66607;SDS011;53462;39.616;8.824;2022-08-07T14:49:44;5.72;;;1.85;;
66607;SDS011;53462;39.616;8.824;2022-08-07T14:52:12;5.40;;;2.30;;
66607;SDS011;53462;39.616;8.824;2022-08-07T14:54:39;7.03;;;2.35;;
66607;SDS011;53462;39.616;8.824;2022-08-07T14:57:09;6.07;;;1.98;;
66607;SDS011;53462;39.616;8.824;2022-08-07T14:59:36;8.45;;;2.20;;
66607;SDS011;53462;39.616;8.824;2022-08-07T15:02:13;5.93;;;2.63;;
66607;SDS011;53462;39.616;8.824;2022-08-07T15:04:43;8.40;;;2.60;;
66607;SDS011;53462;39.616;8.824;2022-08-07T15:07:15;5.68;;;2.40;;
66607;SDS011;53462;39.616;8.824;2022-08-07T15:09:46;5.40;;;2.22;;
66607;SDS011;53462;39.616;8.824;2022-08-07T15:12:14;5.03;;;2.30;;
66607;SDS011;53462;39.616;8.824;2022-08-07T15:14:48;5.68;;;2.50;;
66607;SDS011;53462;39.616;8.824;2022-08-07T15:17:22;6.28;;;2.38;;
66607;SDS011;53462;39.616;8.824;2022-08-07T15:20:06;6.85;;;2.67;;
66607;SDS011;53462;39.616;8.824;2022-08-07T15:22:49;6.43;;;2.17;;
66607;SDS011;53462;39.616;8.824;2022-08-07T15:25:26;6.55;;;2.38;;
66607;SDS011;53462;39.616;8.824;2022-08-07T15:27:58;5.57;;;2.38;;
66607;SDS011;53462;39.616;8.824;2022-08-07T15:30:26;10.15;;;2.90;;
66607;SDS011;53462;39.616;8.824;2022-08-07T15:32:53;4.65;;;2.15;;
66607;SDS011;53462;39.616;8.824;2022-08-07T15:35:23;5.55;;;2.40;;
66607;SDS011;53462;39.616;8.824;2022-08-07T15:37:52;7.45;;;2.75;;
66607;SDS011;53462;39.616;8.824;2022-08-07T15:40:22;6.80;;;2.80;;
66607;SDS011;53462;39.616;8.824;2022-08-07T15:42:53;7.55;;;2.67;;
66607;SDS011;53462;39.616;8.824;2022-08-07T15:47:56;6.25;;;2.63;;
66607;SDS011;53462;39.616;8.824;2022-08-07T15:50:30;6.22;;;2.15;;
66607;SDS011;53462;39.616;8.824;2022-08-07T15:53:03;6.43;;;2.42;;
66607;SDS011;53462;39.616;8.824;2022-08-07T15:55:51;9.32;;;2.40;;
66607;SDS011;53462;39.616;8.824;2022-08-07T15:58:22;6.43;;;2.33;;
66607;SDS011;53462;39.616;8.824;2022-08-07T16:00:56;6.30;;;2.72;;
66607;SDS011;53462;39.616;8.824;2022-08-07T16:03:23;5.88;;;2.60;;
66607;SDS011;53462;39.616;8.824;2022-08-07T16:05:55;6.90;;;2.33;;
66607;SDS011;53462;39.616;8.824;2022-08-07T16:08:23;12.80;;;2.75;;
66607;SDS011;53462;39.616;8.824;2022-08-07T16:11:37;7.88;;;2.60;;
66607;SDS011;53462;39.616;8.824;2022-08-07T16:14:12;8.73;;;2.83;;
66607;SDS011;53462;39.616;8.824;2022-08-07T16:19:43;10.05;;;2.67;;
66607;SDS011;53462;39.616;8.824;2022-08-07T16:26:00;7.85;;;2.83;;
66607;SDS011;53462;39.616;8.824;2022-08-07T16:34:06;7.50;;;2.88;;
66607;SDS011;53462;39.616;8.824;2022-08-07T16:59:04;5.07;;;2.33;;
66607;SDS011;53462;39.616;8.824;2022-08-07T17:01:47;6.90;;;2.58;;
66607;SDS011;53462;39.616;8.824;2022-08-07T17:07:46;7.47;;;2.53;;
66607;SDS011;53462;39.616;8.824;2022-08-07T17:16:07;7.13;;;2.65;;
66607;SDS011;53462;39.616;8.824;2022-08-07T17:29:30;5.95;;;2.70;;
66607;SDS011;53462;39.616;8.824;2022-08-07T17:34:52;4.80;;;2.58;;
66607;SDS011;53462;39.616;8.824;2022-08-07T17:37:29;7.57;;;2.78;;
66607;SDS011;53462;39.616;8.824;2022-08-07T17:45:02;8.85;;;3.05;;
66607;SDS011;53462;39.616;8.824;2022-08-07T17:47:36;7.95;;;3.05;;
66607;SDS011;53462;39.616;8.824;2022-08-07T17:56:06;7.50;;;3.00;;
66607;SDS011;53462;39.616;8.824;2022-08-07T17:58:38;9.88;;;3.08;;
66607;SDS011;53462;39.616;8.824;2022-08-07T18:01:15;8.93;;;3.35;;
66607;SDS011;53462;39.616;8.824;2022-08-07T18:06:33;8.15;;;3.40;;
66607;SDS011;53462;39.616;8.824;2022-08-07T18:09:05;7.63;;;2.80;;
66607;SDS011;53462;39.616;8.824;2022-08-07T18:11:39;7.07;;;2.90;;
66607;SDS011;53462;39.616;8.824;2022-08-07T18:14:38;8.85;;;2.90;;
66607;SDS011;53462;39.616;8.824;2022-08-07T18:17:24;11.30;;;3.05;;
66607;SDS011;53462;39.616;8.824;2022-08-07T18:20:09;7.15;;;3.20;;
66607;SDS011;53462;39.616;8.824;2022-08-07T18:22:45;8.68;;;2.70;;
66607;SDS011;53462;39.616;8.824;2022-08-07T18:25:21;8.50;;;3.20;;
66607;SDS011;53462;39.616;8.824;2022-08-07T18:30:47;10.73;;;3.03;;
66607;SDS011;53462;39.616;8.824;2022-08-07T18:36:02;5.85;;;2.97;;
66607;SDS011;53462;39.616;8.824;2022-08-07T18:38:42;6.68;;;2.90;;
66607;SDS011;53462;39.616;8.824;2022-08-07T18:41:12;6.85;;;3.00;;
66607;SDS011;53462;39.616;8.824;2022-08-07T18:43:59;8.73;;;3.00;;
66607;SDS011;53462;39.616;8.824;2022-08-07T18:55:51;6.68;;;3.10;;
66607;SDS011;53462;39.616;8.824;2022-08-07T19:03:50;8.95;;;3.13;;
66607;SDS011;53462;39.616;8.824;2022-08-07T19:06:33;7.43;;;3.03;;
66607;SDS011;53462;39.616;8.824;2022-08-07T19:09:28;8.13;;;3.13;;
66607;SDS011;53462;39.616;8.824;2022-08-07T19:12:18;11.00;;;2.97;;
66607;SDS011;53462;39.616;8.824;2022-08-07T19:20:49;10.43;;;3.20;;
66607;SDS011;53462;39.616;8.824;2022-08-07T19:23:22;9.13;;;3.07;;
66607;SDS011;53462;39.616;8.824;2022-08-07T19:25:53;13.25;;;3.10;;
66607;SDS011;53462;39.616;8.824;2022-08-07T19:28:22;9.95;;;3.42;;